Flight Track Log - Related Links

Times and Time Zones

All times are in EDT time to prevent confusion due to time zone crossing. See the CSJ405 flight status page for this flight to view local times or setup timezone preferences in your user account.

Time Position Orientation Groundspeed Altitude Reporting Facility
EDT Latitude Longitude Course Direction KTS MPH feet Rate Location/Type
Tue 09:29:27 PM 43.1081 -77.7025 254° West 96 110 1,400  Level Cleveland Center
Tue 09:30:28 PM 43.1131 -77.7419 280° West 124 143 2,500 1,091 Climbing Cleveland Center
Tue 09:31:28 PM 43.1142 -77.7875 272° West 106 122 3,600 533 Climbing Cleveland Center
Tue 09:33:17 PM 43.1167 -77.8833 272° West 171 197 4,000 142 Climbing Buffalo TRACON
Tue 09:34:17 PM 43.1167 -77.9500 270° West 173 199 4,000  Level Buffalo TRACON
Tue 09:34:34 PM 43.1000 -77.9500 180° South 170 196 4,000  Level Toronto Center
Tue 09:35:34 PM 43.1167 -78.0167 289° West 170 196 4,000  Level Toronto Center
Tue 09:36:34 PM 43.1167 -78.0500 270° West 170 196 4,000  Level Toronto Center
Tue 09:37:34 PM 43.1167 -78.1333 270° West 170 196 4,000  Level Toronto Center
Tue 09:38:33 PM 43.1167 -78.2000 270° West 170 196 4,000  Level Toronto Center
Tue 09:39:33 PM 43.1167 -78.2667 270° West 170 196 4,000  Level Toronto Center
Tue 09:40:33 PM 43.1167 -78.3333 270° West 160 184 4,000  Level Toronto Center
Tue 09:41:33 PM 43.1167 -78.3833 270° West 160 184 4,000  Level Toronto Center
Tue 09:42:33 PM 43.1167 -78.4500 270° West 170 196 4,000  Level Toronto Center
Tue 09:43:33 PM 43.1333 -78.5167 289° West 170 196 4,000  Level Toronto Center
Tue 09:44:33 PM 43.1333 -78.5667 270° West 170 196 4,000  Level Toronto Center
Tue 09:45:33 PM 43.1333 -78.6333 270° West 160 184 4,000  Level Toronto Center
Tue 09:46:33 PM 43.1333 -78.7000 270° West 160 184 4,000  Level Toronto Center
Tue 09:47:33 PM 43.1333 -78.7667 270° West 160 184 4,000  Level Toronto Center
Tue 09:48:33 PM 43.1500 -78.8333 289° West 170 196 4,000  Level Toronto Center
Tue 09:49:33 PM 43.1500 -78.8833 270° West 160 184 4,000  Level Toronto Center
Tue 09:50:33 PM 43.1500 -78.9500 270° West 160 184 4,000  Level Toronto Center
Tue 09:51:33 PM 43.1500 -79.0000 270° West 160 184 4,000  Level Toronto Center
Tue 09:52:33 PM 43.1500 -79.0667 270° West 160 184 4,000  Level Toronto Center
Tue 09:53:33 PM 43.1500 -79.1333 270° West 160 184 4,000  Level Toronto Center
Tue 09:54:33 PM 43.1500 -79.1833 270° West 160 184 4,000  Level Toronto Center
Tue 09:55:33 PM 43.1500 -79.2500 270° West 160 184 4,000  Level Toronto Center
Tue 09:56:33 PM 43.1500 -79.3167 270° West 160 184 4,000  Level Toronto Center
Tue 09:57:33 PM 43.1500 -79.3667 270° West 160 184 4,000  Level Toronto Center
Tue 09:58:33 PM 43.1500 -79.4333 270° West 160 184 4,000  Level Toronto Center
Tue 09:59:33 PM 43.1500 -79.5000 270° West 160 184 4,000 -100 Level Toronto Center
Tue 10:00:33 PM 43.1667 -79.5500 295° West 160 184 3,800 -100 Descending Toronto Center
Tue 10:01:33 PM 43.1667 -79.6167 270° West 160 184 3,800 -50 Level Toronto Center
Tue 10:02:33 PM 43.1667 -79.6833 270° West 160 184 3,700 -250 Descending Toronto Center
Tue 10:03:33 PM 43.1833 -79.7500 289° West 170 196 3,300 -500 Descending Toronto Center
Tue 10:04:33 PM 43.1833 -79.8000 270° West 180 207 2,700 -900 Descending Toronto Center
Tue 10:05:33 PM 43.1833 -79.8667 270° West 170 196 1,500 -950 Descending Toronto Center
Tue 10:06:33 PM 43.1667 -79.9000 236° Southwest 110 127 800 -700 Descending Toronto Center

Login

Don't have an account? Register now (free) for customized features, flight alerts, and more!